sensor_id;sensor_type;location;lat;lon;timestamp;pressure;altitude;pressure_sealevel;temperature;humidity
29569;BME280;16501;51.462;14.346;2024-02-28T12:28:30;100716.31;;;3.73;100.00
29569;BME280;16501;51.462;14.346;2024-02-28T12:30:56;100756.59;;;3.85;100.00
29569;BME280;16501;51.462;14.346;2024-02-28T12:33:22;100732.41;;;3.51;100.00
29569;BME280;16501;51.462;14.346;2024-02-28T12:35:48;100748.22;;;3.88;100.00
29569;BME280;16501;51.462;14.346;2024-02-28T12:38:13;100774.63;;;4.00;100.00
29569;BME280;16501;51.462;14.346;2024-02-28T12:40:40;100752.66;;;3.82;100.00
29569;BME280;16501;51.462;14.346;2024-02-28T12:43:08;100766.41;;;3.93;100.00
29569;BME280;16501;51.462;14.346;2024-02-28T12:45:35;100717.50;;;3.72;100.00
29569;BME280;16501;51.462;14.346;2024-02-28T12:48:01;100747.69;;;4.01;100.00
29569;BME280;16501;51.462;14.346;2024-02-28T12:50:27;100745.91;;;4.14;100.00
29569;BME280;16501;51.462;14.346;2024-02-28T12:52:52;100763.59;;;4.27;100.00
29569;BME280;16501;51.462;14.346;2024-02-28T12:55:19;100760.88;;;4.24;100.00
29569;BME280;16501;51.462;14.346;2024-02-28T12:57:46;100749.25;;;4.02;100.00
29569;BME280;16501;51.462;14.346;2024-02-28T13:00:12;100735.38;;;4.02;100.00
29569;BME280;16501;51.462;14.346;2024-02-28T13:02:38;100773.53;;;4.25;100.00
29569;BME280;16501;51.462;14.346;2024-02-28T13:05:04;100764.53;;;4.17;100.00
29569;BME280;16501;51.462;14.346;2024-02-28T13:07:30;100781.84;;;4.25;100.00
29569;BME280;16501;51.462;14.346;2024-02-28T13:09:56;100744.47;;;4.02;100.00
29569;BME280;16501;51.462;14.346;2024-02-28T13:12:21;100695.59;;;3.50;100.00
29569;BME280;16501;51.462;14.346;2024-02-28T13:14:47;100810.22;;;4.09;100.00
29569;BME280;16501;51.462;14.346;2024-02-28T13:17:13;100757.56;;;4.02;100.00
29569;BME280;16501;51.462;14.346;2024-02-28T13:19:38;100770.53;;;4.12;100.00
29569;BME280;16501;51.462;14.346;2024-02-28T13:22:05;100744.84;;;3.73;100.00
29569;BME280;16501;51.462;14.346;2024-02-28T13:24:30;100740.53;;;3.69;100.00
29569;BME280;16501;51.462;14.346;2024-02-28T13:26:55;100774.59;;;4.04;100.00
29569;BME280;16501;51.462;14.346;2024-02-28T13:29:21;100774.69;;;3.96;100.00
29569;BME280;16501;51.462;14.346;2024-02-28T13:31:46;100765.16;;;3.97;100.00
29569;BME280;16501;51.462;14.346;2024-02-28T13:34:11;100782.50;;;4.05;100.00
29569;BME280;16501;51.462;14.346;2024-02-28T13:36:37;100751.13;;;3.77;100.00
29569;BME280;16501;51.462;14.346;2024-02-28T13:39:07;100767.19;;;3.93;100.00
29569;BME280;16501;51.462;14.346;2024-02-28T13:41:33;100759.28;;;3.92;100.00
29569;BME280;16501;51.462;14.346;2024-02-28T13:43:58;100784.34;;;4.15;100.00
29569;BME280;16501;51.462;14.346;2024-02-28T13:46:24;100697.75;;;3.32;100.00
29569;BME280;16501;51.462;14.346;2024-02-28T13:48:50;100767.13;;;4.01;100.00
29569;BME280;16501;51.462;14.346;2024-02-28T13:51:15;100762.03;;;3.95;100.00
29569;BME280;16501;51.462;14.346;2024-02-28T13:53:42;100769.81;;;4.08;100.00
29569;BME280;16501;51.462;14.346;2024-02-28T13:56:07;100783.69;;;4.08;100.00
29569;BME280;16501;51.462;14.346;2024-02-28T13:58:33;100758.06;;;3.93;100.00
29569;BME280;16501;51.462;14.346;2024-02-28T14:00:58;100784.91;;;4.03;100.00
29569;BME280;16501;51.462;14.346;2024-02-28T14:03:24;100787.19;;;4.12;100.00
29569;BME280;16501;51.462;14.346;2024-02-28T14:05:51;100785.19;;;4.12;100.00
29569;BME280;16501;51.462;14.346;2024-02-28T14:08:17;100799.19;;;4.02;100.00
29569;BME280;16501;51.462;14.346;2024-02-28T14:10:43;100780.69;;;3.91;100.00
29569;BME280;16501;51.462;14.346;2024-02-28T14:13:08;100745.66;;;3.70;100.00
29569;BME280;16501;51.462;14.346;2024-02-28T14:15:34;100751.88;;;3.82;100.00
29569;BME280;16501;51.462;14.346;2024-02-28T14:18:01;100794.47;;;3.99;100.00
29569;BME280;16501;51.462;14.346;2024-02-28T14:20:29;100767.63;;;3.88;100.00
29569;BME280;16501;51.462;14.346;2024-02-28T14:22:55;100790.41;;;4.07;100.00
29569;BME280;16501;51.462;14.346;2024-02-28T14:25:22;100784.09;;;4.06;100.00
29569;BME280;16501;51.462;14.346;2024-02-28T14:27:47;100770.00;;;3.90;100.00
29569;BME280;16501;51.462;14.346;2024-02-28T14:30:14;100749.97;;;3.75;100.00
29569;BME280;16501;51.462;14.346;2024-02-28T14:32:40;100789.31;;;4.01;100.00
29569;BME280;16501;51.462;14.346;2024-02-28T14:35:07;100774.28;;;3.98;100.00
29569;BME280;16501;51.462;14.346;2024-02-28T14:37:37;100785.69;;;4.04;100.00
29569;BME280;16501;51.462;14.346;2024-02-28T14:40:05;100771.16;;;3.92;100.00
29569;BME280;16501;51.462;14.346;2024-02-28T14:42:41;100770.00;;;3.90;100.00
29569;BME280;16501;51.462;14.346;2024-02-28T14:45:08;100792.81;;;4.05;100.00
29569;BME280;16501;51.462;14.346;2024-02-28T14:47:35;100738.50;;;3.73;100.00
29569;BME280;16501;51.462;14.346;2024-02-28T14:50:02;100776.22;;;4.01;100.00
29569;BME280;16501;51.462;14.346;2024-02-28T14:52:28;100797.09;;;4.13;100.00
29569;BME280;16501;51.462;14.346;2024-02-28T14:54:54;100768.31;;;4.00;100.00
29569;BME280;16501;51.462;14.346;2024-02-28T14:57:19;100767.13;;;4.01;100.00
29569;BME280;16501;51.462;14.346;2024-02-28T14:59:45;100727.38;;;3.76;100.00
29569;BME280;16501;51.462;14.346;2024-02-28T15:02:12;100770.72;;;3.97;100.00
29569;BME280;16501;51.462;14.346;2024-02-28T15:04:37;100777.28;;;4.11;100.00
29569;BME280;16501;51.462;14.346;2024-02-28T15:07:04;100762.75;;;4.00;100.00
29569;BME280;16501;51.462;14.346;2024-02-28T15:09:29;100781.31;;;4.06;100.00
29569;BME280;16501;51.462;14.346;2024-02-28T15:11:55;100764.63;;;4.10;100.00
29569;BME280;16501;51.462;14.346;2024-02-28T15:14:23;100777.53;;;4.24;100.00
29569;BME280;16501;51.462;14.346;2024-02-28T15:16:49;100761.75;;;4.17;100.00
29569;BME280;16501;51.462;14.346;2024-02-28T15:19:14;100745.97;;;4.10;100.00
29569;BME280;16501;51.462;14.346;2024-02-28T15:21:40;100735.84;;;3.96;100.00
29569;BME280;16501;51.462;14.346;2024-02-28T15:24:06;100710.59;;;3.87;100.00
29569;BME280;16501;51.462;14.346;2024-02-28T15:26:32;100722.88;;;3.86;100.00
29569;BME280;16501;51.462;14.346;2024-02-28T15:28:57;100722.50;;;3.84;100.00
29569;BME280;16501;51.462;14.346;2024-02-28T15:31:22;100743.78;;;3.94;100.00
29569;BME280;16501;51.462;14.346;2024-02-28T15:33:48;100751.66;;;4.00;100.00
29569;BME280;16501;51.462;14.346;2024-02-28T15:36:14;100770.56;;;4.08;100.00
29569;BME280;16501;51.462;14.346;2024-02-28T15:38:40;100763.75;;;4.17;100.00
29569;BME280;16501;51.462;14.346;2024-02-28T15:41:05;100766.72;;;3.99;100.00
29569;BME280;16501;51.462;14.346;2024-02-28T15:43:31;100782.31;;;4.20;100.00
29569;BME280;16501;51.462;14.346;2024-02-28T15:45:58;100752.47;;;3.96;100.00
29569;BME280;16501;51.462;14.346;2024-02-28T15:48:23;100773.41;;;4.05;100.00
29569;BME280;16501;51.462;14.346;2024-02-28T15:50:49;100764.00;;;3.95;100.00
29569;BME280;16501;51.462;14.346;2024-02-28T15:53:20;100732.13;;;3.76;100.00
29569;BME280;16501;51.462;14.346;2024-02-28T15:56:10;100732.91;;;3.76;100.00
29569;BME280;16501;51.462;14.346;2024-02-28T15:58:42;100738.75;;;3.86;100.00
29569;BME280;16501;51.462;14.346;2024-02-28T16:01:10;100790.28;;;4.18;100.00
29569;BME280;16501;51.462;14.346;2024-02-28T16:03:45;100669.50;;;3.44;100.00
29569;BME280;16501;51.462;14.346;2024-02-28T16:06:10;100803.94;;;4.36;100.00
29569;BME280;16501;51.462;14.346;2024-02-28T16:08:39;100773.56;;;4.21;100.00
29569;BME280;16501;51.462;14.346;2024-02-28T16:11:12;100755.50;;;4.09;100.00
29569;BME280;16501;51.462;14.346;2024-02-28T16:13:42;100808.28;;;4.37;100.00
29569;BME280;16501;51.462;14.346;2024-02-28T16:16:08;100678.69;;;3.37;100.00
29569;BME280;16501;51.462;14.346;2024-02-28T16:18:33;100725.41;;;3.73;100.00
29569;BME280;16501;51.462;14.346;2024-02-28T16:20:59;100742.81;;;3.77;100.00
29569;BME280;16501;51.462;14.346;2024-02-28T16:23:25;100805.78;;;4.15;100.00
29569;BME280;16501;51.462;14.346;2024-02-28T16:25:50;100791.78;;;3.91;100.00
29569;BME280;16501;51.462;14.346;2024-02-28T16:28:21;100773.28;;;3.81;100.00
29569;BME280;16501;51.462;14.346;2024-02-28T16:30:47;100781.50;;;3.88;100.00
29569;BME280;16501;51.462;14.346;2024-02-28T16:33:12;100815.19;;;3.90;100.00
29569;BME280;16501;51.462;14.346;2024-02-28T16:35:38;100799.31;;;3.91;100.00
29569;BME280;16501;51.462;14.346;2024-02-28T16:38:03;100808.06;;;3.89;100.00
29569;BME280;16501;51.462;14.346;2024-02-28T16:40:28;100838.81;;;4.02;100.00
29569;BME280;16501;51.462;14.346;2024-02-28T16:42:55;100823.75;;;4.03;100.00
29569;BME280;16501;51.462;14.346;2024-02-28T16:45:23;100822.13;;;4.06;100.00
29569;BME280;16501;51.462;14.346;2024-02-28T16:47:53;100825.56;;;3.83;100.00
29569;BME280;16501;51.462;14.346;2024-02-28T16:50:20;100814.34;;;3.93;100.00
29569;BME280;16501;51.462;14.346;2024-02-28T16:52:46;100828.66;;;3.88;100.00
29569;BME280;16501;51.462;14.346;2024-02-28T16:55:15;100808.34;;;3.64;100.00
29569;BME280;16501;51.462;14.346;2024-02-28T16:57:41;100833.47;;;3.84;100.00
29569;BME280;16501;51.462;14.346;2024-02-28T17:00:06;100831.88;;;3.87;100.00
29569;BME280;16501;51.462;14.346;2024-02-28T17:02:38;100835.03;;;3.89;100.00
29569;BME280;16501;51.462;14.346;2024-02-28T17:05:04;100817.25;;;3.83;100.00
29569;BME280;16501;51.462;14.346;2024-02-28T17:07:30;100831.06;;;3.86;100.00
29569;BME280;16501;51.462;14.346;2024-02-28T17:09:56;100846.91;;;3.89;100.00
29569;BME280;16501;51.462;14.346;2024-02-28T17:12:22;100839.00;;;3.88;100.00
29569;BME280;16501;51.462;14.346;2024-02-28T17:14:48;100829.50;;;3.85;100.00
29569;BME280;16501;51.462;14.346;2024-02-28T17:17:13;100818.50;;;3.78;100.00
29569;BME280;16501;51.462;14.346;2024-02-28T17:19:40;100840.94;;;3.91;100.00
29569;BME280;16501;51.462;14.346;2024-02-28T17:22:05;100837.84;;;3.85;100.00
29569;BME280;16501;51.462;14.346;2024-02-28T17:24:32;100802.84;;;3.57;100.00
29569;BME280;16501;51.462;14.346;2024-02-28T17:26:57;100843.75;;;3.87;100.00
29569;BME280;16501;51.462;14.346;2024-02-28T17:29:24;100833.16;;;3.78;100.00
29569;BME280;16501;51.462;14.346;2024-02-28T17:31:50;100821.03;;;3.62;100.00
29569;BME280;16501;51.462;14.346;2024-02-28T17:34:15;100832.13;;;3.62;100.00
29569;BME280;16501;51.462;14.346;2024-02-28T17:36:41;100835.25;;;3.64;100.00
29569;BME280;16501;51.462;14.346;2024-02-28T17:39:06;100825.06;;;3.53;100.00
29569;BME280;16501;51.462;14.346;2024-02-28T17:41:33;100812.56;;;3.38;100.00
29569;BME280;16501;51.462;14.346;2024-02-28T17:44:00;100843.28;;;3.54;100.00
29569;BME280;16501;51.462;14.346;2024-02-28T17:46:26;100828.38;;;3.37;100.00
29569;BME280;16501;51.462;14.346;2024-02-28T17:48:57;100835.47;;;3.42;100.00
29569;BME280;16501;51.462;14.346;2024-02-28T17:51:22;100849.78;;;3.37;100.00
29569;BME280;16501;51.462;14.346;2024-02-28T17:53:49;100830.09;;;3.24;100.00
29569;BME280;16501;51.462;14.346;2024-02-28T17:56:15;100846.69;;;3.28;100.00
29569;BME280;16501;51.462;14.346;2024-02-28T17:58:43;100816.34;;;3.06;100.00
29569;BME280;16501;51.462;14.346;2024-02-28T18:01:14;100726.19;;;2.45;100.00
29569;BME280;16501;51.462;14.346;2024-02-28T18:03:40;100822.31;;;3.01;100.00
29569;BME280;16501;51.462;14.346;2024-02-28T18:06:07;100843.25;;;3.09;100.00
29569;BME280;16501;51.462;14.346;2024-02-28T18:08:42;100842.50;;;3.05;100.00
29569;BME280;16501;51.462;14.346;2024-02-28T18:11:08;100849.66;;;2.99;100.00
29569;BME280;16501;51.462;14.346;2024-02-28T18:13:43;100808.34;;;2.67;100.00
29569;BME280;16501;51.462;14.346;2024-02-28T18:16:09;100758.72;;;2.27;100.00
29569;BME280;16501;51.462;14.346;2024-02-28T18:18:37;100765.78;;;2.39;100.00
29569;BME280;16501;51.462;14.346;2024-02-28T18:21:03;100834.75;;;2.78;100.00
29569;BME280;16501;51.462;14.346;2024-02-28T18:23:28;100806.00;;;2.54;100.00
29569;BME280;16501;51.462;14.346;2024-02-28T18:25:54;100854.53;;;2.84;100.00
29569;BME280;16501;51.462;14.346;2024-02-28T18:28:20;100811.97;;;2.56;100.00
29569;BME280;16501;51.462;14.346;2024-02-28T18:30:46;100851.03;;;2.69;100.00
29569;BME280;16501;51.462;14.346;2024-02-28T18:33:12;100849.19;;;2.44;100.00
29569;BME280;16501;51.462;14.346;2024-02-28T18:35:38;100848.75;;;2.50;100.00
29569;BME280;16501;51.462;14.346;2024-02-28T18:38:04;100851.16;;;2.48;100.00
29569;BME280;16501;51.462;14.346;2024-02-28T18:40:30;100853.50;;;2.45;100.00
29569;BME280;16501;51.462;14.346;2024-02-28T18:42:56;100863.00;;;2.48;100.00
29569;BME280;16501;51.462;14.346;2024-02-28T18:45:22;100858.66;;;2.43;100.00
29569;BME280;16501;51.462;14.346;2024-02-28T18:47:49;100845.66;;;2.33;100.00
29569;BME280;16501;51.462;14.346;2024-02-28T18:50:14;100852.38;;;2.36;100.00
29569;BME280;16501;51.462;14.346;2024-02-28T18:52:39;100847.25;;;2.34;100.00
29569;BME280;16501;51.462;14.346;2024-02-28T18:55:09;100852.81;;;2.31;100.00
29569;BME280;16501;51.462;14.346;2024-02-28T18:57:34;100835.47;;;2.12;100.00
29569;BME280;16501;51.462;14.346;2024-02-28T19:00:00;100863.88;;;2.27;100.00
29569;BME280;16501;51.462;14.346;2024-02-28T19:02:25;100839.88;;;1.99;100.00
29569;BME280;16501;51.462;14.346;2024-02-28T19:04:51;100836.31;;;1.91;100.00
29569;BME280;16501;51.462;14.346;2024-02-28T19:07:17;100843.81;;;2.01;100.00
29569;BME280;16501;51.462;14.346;2024-02-28T19:09:42;100861.16;;;2.05;100.00
29569;BME280;16501;51.462;14.346;2024-02-28T19:12:08;100854.13;;;1.94;100.00
29569;BME280;16501;51.462;14.346;2024-02-28T19:14:34;100870.31;;;1.99;100.00
29569;BME280;16501;51.462;14.346;2024-02-28T19:16:59;100851.75;;;1.88;100.00
29569;BME280;16501;51.462;14.346;2024-02-28T19:19:26;100882.91;;;2.03;100.00
29569;BME280;16501;51.462;14.346;2024-02-28T19:21:52;100874.63;;;2.03;100.00
29569;BME280;16501;51.462;14.346;2024-02-28T19:24:17;100877.81;;;1.95;100.00
29569;BME280;16501;51.462;14.346;2024-02-28T19:26:44;100870.72;;;1.90;100.00
29569;BME280;16501;51.462;14.346;2024-02-28T19:29:10;100875.44;;;1.93;100.00
29569;BME280;16501;51.462;14.346;2024-02-28T19:31:37;100849.00;;;1.74;100.00
29569;BME280;16501;51.462;14.346;2024-02-28T19:34:08;100869.56;;;1.69;100.00
29569;BME280;16501;51.462;14.346;2024-02-28T19:36:38;100809.59;;;1.41;100.00
29569;BME280;16501;51.462;14.346;2024-02-28T19:39:11;100874.28;;;1.76;100.00
29569;BME280;16501;51.462;14.346;2024-02-28T19:41:51;100748.03;;;0.94;100.00
29569;BME280;16501;51.462;14.346;2024-02-28T19:44:16;100836.78;;;1.43;100.00
29569;BME280;16501;51.462;14.346;2024-02-28T19:46:46;100875.09;;;1.69;100.00
29569;BME280;16501;51.462;14.346;2024-02-28T19:49:16;100830.09;;;1.44;100.00
29569;BME280;16501;51.462;14.346;2024-02-28T19:51:54;100739.75;;;0.76;100.00
29569;BME280;16501;51.462;14.346;2024-02-28T19:54:22;100671.53;;;0.37;100.00
29569;BME280;16501;51.462;14.346;2024-02-28T19:56:50;100664.44;;;0.36;100.00
29569;BME280;16501;51.462;14.346;2024-02-28T19:59:20;100738.16;;;0.64;100.00
29569;BME280;16501;51.462;14.346;2024-02-28T20:01:54;100871.13;;;1.60;100.00
29569;BME280;16501;51.462;14.346;2024-02-28T20:04:29;100862.06;;;1.56;100.00
29569;BME280;16501;51.462;14.346;2024-02-28T20:06:54;100841.94;;;1.34;100.00
29569;BME280;16501;51.462;14.346;2024-02-28T20:09:22;100809.59;;;1.05;100.00
29569;BME280;16501;51.462;14.346;2024-02-28T20:11:49;100653.75;;;-0.05;100.00
29569;BME280;16501;51.462;14.346;2024-02-28T20:14:15;100774.06;;;0.75;100.00
29569;BME280;16501;51.462;14.346;2024-02-28T20:16:41;100862.09;;;1.41;100.00
29569;BME280;16501;51.462;14.346;2024-02-28T20:19:08;100842.72;;;1.27;100.00
29569;BME280;16501;51.462;14.346;2024-02-28T20:21:34;100816.69;;;1.06;100.00
29569;BME280;16501;51.462;14.346;2024-02-28T20:24:03;100863.66;;;1.35;100.00
29569;BME280;16501;51.462;14.346;2024-02-28T20:26:32;100867.19;;;1.28;100.00
29569;BME280;16501;51.462;14.346;2024-02-28T20:29:17;100862.47;;;1.29;100.00
29569;BME280;16501;51.462;14.346;2024-02-28T20:31:46;100839.97;;;1.16;100.00
29569;BME280;16501;51.462;14.346;2024-02-28T20:34:27;100839.56;;;1.21;100.00
29569;BME280;16501;51.462;14.346;2024-02-28T20:36:55;100869.19;;;1.31;100.00
29569;BME280;16501;51.462;14.346;2024-02-28T20:39:21;100805.63;;;0.96;100.00
29569;BME280;16501;51.462;14.346;2024-02-28T20:41:47;100800.91;;;0.89;100.00
29569;BME280;16501;51.462;14.346;2024-02-28T20:44:15;100862.06;;;1.20;100.00
29569;BME280;16501;51.462;14.346;2024-02-28T20:46:47;100837.59;;;1.04;100.00
29569;BME280;16501;51.462;14.346;2024-02-28T20:49:14;100866.41;;;1.17;100.00
29569;BME280;16501;51.462;14.346;2024-02-28T20:51:40;100859.31;;;1.16;100.00
29569;BME280;16501;51.462;14.346;2024-02-28T20:54:11;100873.13;;;1.16;100.00
29569;BME280;16501;51.462;14.346;2024-02-28T20:56:40;100713.28;;;0.17;100.00
29569;BME280;16501;51.462;14.346;2024-02-28T20:59:12;100899.94;;;1.08;100.00
29569;BME280;16501;51.462;14.346;2024-02-28T21:01:43;100700.66;;;0.06;100.00
29569;BME280;16501;51.462;14.346;2024-02-28T21:04:10;100561.78;;;-0.88;100.00
29569;BME280;16501;51.462;14.346;2024-02-28T21:06:41;100745.25;;;0.40;100.00
29569;BME280;16501;51.462;14.346;2024-02-28T21:09:07;100822.56;;;0.83;100.00
29569;BME280;16501;51.462;14.346;2024-02-28T21:11:40;100701.44;;;0.10;100.00
29569;BME280;16501;51.462;14.346;2024-02-28T21:14:07;100745.59;;;0.21;100.00
29569;BME280;16501;51.462;14.346;2024-02-28T21:16:44;100757.38;;;0.14;100.00
29569;BME280;16501;51.462;14.346;2024-02-28T21:19:16;100752.31;;;0.30;100.00
29569;BME280;16501;51.462;14.346;2024-02-28T21:21:41;100847.44;;;0.87;100.00
29569;BME280;16501;51.462;14.346;2024-02-28T21:24:08;100750.31;;;0.24;100.00
29569;BME280;16501;51.462;14.346;2024-02-28T21:26:40;100830.84;;;0.76;100.00
29569;BME280;16501;51.462;14.346;2024-02-28T21:29:09;100774.78;;;0.43;100.00
29569;BME280;16501;51.462;14.346;2024-02-28T21:31:36;100782.69;;;0.41;100.00
29569;BME280;16501;51.462;14.346;2024-02-28T21:34:05;100772.84;;;0.40;100.00
29569;BME280;16501;51.462;14.346;2024-02-28T21:36:31;100780.31;;;0.40;100.00
29569;BME280;16501;51.462;14.346;2024-02-28T21:38:58;100863.19;;;0.79;100.00
29569;BME280;16501;51.462;14.346;2024-02-28T21:41:24;100804.75;;;0.48;100.00
29569;BME280;16501;51.462;14.346;2024-02-28T21:43:49;100839.13;;;0.69;100.00
29569;BME280;16501;51.462;14.346;2024-02-28T21:46:15;100810.28;;;0.48;100.00
29569;BME280;16501;51.462;14.346;2024-02-28T21:48:40;100805.97;;;0.44;100.00
29569;BME280;16501;51.462;14.346;2024-02-28T21:51:06;100824.94;;;0.67;100.00
29569;BME280;16501;51.462;14.346;2024-02-28T21:53:32;100821.72;;;0.54;100.00
29569;BME280;16501;51.462;14.346;2024-02-28T21:56:01;100835.56;;;0.65;100.00
29569;BME280;16501;51.462;14.346;2024-02-28T21:58:27;100835.16;;;0.63;100.00
29569;BME280;16501;51.462;14.346;2024-02-28T22:00:53;100814.63;;;0.42;100.00
29569;BME280;16501;51.462;14.346;2024-02-28T22:03:19;100861.56;;;0.60;100.00
29569;BME280;16501;51.462;14.346;2024-02-28T22:05:44;100830.00;;;0.50;100.00
29569;BME280;16501;51.462;14.346;2024-02-28T22:08:10;100818.56;;;0.48;100.00
29569;BME280;16501;51.462;14.346;2024-02-28T22:10:35;100805.53;;;0.42;100.00
29569;BME280;16501;51.462;14.346;2024-02-28T22:13:01;100830.81;;;0.54;100.00
29569;BME280;16501;51.462;14.346;2024-02-28T22:15:26;100790.53;;;0.32;100.00
29569;BME280;16501;51.462;14.346;2024-02-28T22:17:52;100814.56;;;0.31;100.00
29569;BME280;16501;51.462;14.346;2024-02-28T22:20:19;100805.50;;;0.27;100.00
29569;BME280;16501;51.462;14.346;2024-02-28T22:22:45;100805.50;;;0.27;100.00
29569;BME280;16501;51.462;14.346;2024-02-28T22:25:10;100778.66;;;0.10;100.00
29569;BME280;16501;51.462;14.346;2024-02-28T22:27:36;100795.59;;;0.19;100.00
29569;BME280;16501;51.462;14.346;2024-02-28T22:30:01;100775.47;;;0.04;100.00
29569;BME280;16501;51.462;14.346;2024-02-28T22:32:28;100763.22;;;-0.09;100.00
29569;BME280;16501;51.462;14.346;2024-02-28T22:34:53;100804.69;;;0.23;100.00
29569;BME280;16501;51.462;14.346;2024-02-28T22:37:19;100829.97;;;0.36;100.00
29569;BME280;16501;51.462;14.346;2024-02-28T22:39:44;100822.88;;;0.35;100.00
29569;BME280;16501;51.462;14.346;2024-02-28T22:42:10;100801.56;;;0.25;100.00
29569;BME280;16501;51.462;14.346;2024-02-28T22:44:35;100817.31;;;0.28;100.00
29569;BME280;16501;51.462;14.346;2024-02-28T22:47:03;100839.00;;;0.33;100.00
29569;BME280;16501;51.462;14.346;2024-02-28T22:49:30;100752.16;;;-0.16;100.00
29569;BME280;16501;51.462;14.346;2024-02-28T22:51:56;100814.16;;;0.26;100.00
29569;BME280;16501;51.462;14.346;2024-02-28T22:54:22;100795.19;;;0.10;100.00
29569;BME280;16501;51.462;14.346;2024-02-28T22:56:49;100800.69;;;0.06;100.00
29569;BME280;16501;51.462;14.346;2024-02-28T22:59:18;100761.63;;;-0.14;100.00
29569;BME280;16501;51.462;14.346;2024-02-28T23:01:44;100798.31;;;0.05;100.00
29569;BME280;16501;51.462;14.346;2024-02-28T23:04:09;100813.34;;;0.14;100.00
29569;BME280;16501;51.462;14.346;2024-02-28T23:06:35;100786.88;;;-0.05;100.00
29569;BME280;16501;51.462;14.346;2024-02-28T23:09:00;100804.59;;;0.05;100.00
29569;BME280;16501;51.462;14.346;2024-02-28T23:11:26;100752.53;;;-0.22;100.00
29569;BME280;16501;51.462;14.346;2024-02-28T23:13:51;100773.06;;;-0.08;100.00
29569;BME280;16501;51.462;14.346;2024-02-28T23:16:17;100813.31;;;0.07;100.00
29569;BME280;16501;51.462;14.346;2024-02-28T23:18:42;100762.34;;;-0.28;100.00
29569;BME280;16501;51.462;14.346;2024-02-28T23:21:08;100802.25;;;0.00;100.00
29569;BME280;16501;51.462;14.346;2024-02-28T23:23:34;100805.78;;;0.01;100.00
29569;BME280;16501;51.462;14.346;2024-02-28T23:25:59;100784.84;;;-0.15;100.00
29569;BME280;16501;51.462;14.346;2024-02-28T23:28:24;100778.91;;;-0.21;100.00
29569;BME280;16501;51.462;14.346;2024-02-28T23:30:50;100803.81;;;0.01;100.00
29569;BME280;16501;51.462;14.346;2024-02-28T23:33:15;100806.19;;;-0.01;100.00
29569;BME280;16501;51.462;14.346;2024-02-28T23:35:41;100795.09;;;-0.12;100.00
29569;BME280;16501;51.462;14.346;2024-02-28T23:38:08;100790.38;;;-0.11;100.00
29569;BME280;16501;51.462;14.346;2024-02-28T23:40:34;100802.63;;;-0.05;100.00
29569;BME280;16501;51.462;14.346;2024-02-28T23:42:59;100785.22;;;-0.16;100.00
29569;BME280;16501;51.462;14.346;2024-02-28T23:45:25;100762.69;;;-0.36;100.00
29569;BME280;16501;51.462;14.346;2024-02-28T23:47:50;100802.16;;;-0.14;100.00
29569;BME280;16501;51.462;14.346;2024-02-28T23:50:17;100805.72;;;-0.14;100.00
29569;BME280;16501;51.462;14.346;2024-02-28T23:52:42;100795.00;;;-0.26;100.00
29569;BME280;16501;51.462;14.346;2024-02-28T23:55:07;100771.34;;;-0.42;100.00
29569;BME280;16501;51.462;14.346;2024-02-28T23:57:33;100776.13;;;-0.31;100.00
29569;BME280;16501;51.462;14.346;2024-02-28T23:59:59;100768.16;;;-0.44;100.00
